Klamath, California
Current Conditions -  °F | °C
As of 11:56 PM on Saturday 25 Oct 2014 (Local Time) from KCEC Reporting Station
Overcast Overcast  
Wind Chill: 56°   Ceiling: 7000
Heat Index: 56°   Visibility: 10mi
Dew Point: 50°   Wind: 7mph
Humidity: 80%   Direction: 200°SSW
Pressure: 30.11"   Gusts: NA
Location:  41.53°N, 124.04°W
Report Text: KCEC 260656Z AUTO 20006KT 10SM SCT055 OVC070 13/10 A3011 RMK AO2 RAB12E25 SLP196 P0000 T01330100
Loading
Personal Weather Stations






























Interactive Weather Map
Tropical Storm Tracking
New forecast layout! Learn more

10-Day Weather Forecast

Advertisements
Track Severe Weather on mobile